sensor_id;sensor_type;location;lat;lon;timestamp;P1;durP1;ratioP1;P2;durP2;ratioP2
17604;SDS011;8921;50.964;6.800;2023-04-08T00:00:06;23.70;;;11.63;;
17604;SDS011;8921;50.964;6.800;2023-04-08T00:02:35;20.50;;;11.47;;
17604;SDS011;8921;50.964;6.800;2023-04-08T00:05:03;21.93;;;12.73;;
17604;SDS011;8921;50.964;6.800;2023-04-08T00:07:31;20.30;;;11.37;;
17604;SDS011;8921;50.964;6.800;2023-04-08T00:10:00;19.83;;;11.67;;
17604;SDS011;8921;50.964;6.800;2023-04-08T00:12:28;19.53;;;12.17;;
17604;SDS011;8921;50.964;6.800;2023-04-08T00:14:56;27.67;;;12.23;;
17604;SDS011;8921;50.964;6.800;2023-04-08T00:17:24;22.30;;;12.20;;
17604;SDS011;8921;50.964;6.800;2023-04-08T00:19:53;19.43;;;12.67;;
17604;SDS011;8921;50.964;6.800;2023-04-08T00:22:21;27.50;;;12.60;;
17604;SDS011;8921;50.964;6.800;2023-04-08T00:24:49;19.10;;;11.30;;
17604;SDS011;8921;50.964;6.800;2023-04-08T00:27:17;26.30;;;11.83;;
17604;SDS011;8921;50.964;6.800;2023-04-08T00:29:46;24.17;;;12.67;;
17604;SDS011;8921;50.964;6.800;2023-04-08T00:32:14;22.37;;;13.60;;
17604;SDS011;8921;50.964;6.800;2023-04-08T00:34:42;26.10;;;11.30;;
17604;SDS011;8921;50.964;6.800;2023-04-08T00:37:11;18.50;;;11.37;;
17604;SDS011;8921;50.964;6.800;2023-04-08T00:39:39;30.07;;;13.77;;
17604;SDS011;8921;50.964;6.800;2023-04-08T00:42:07;26.07;;;13.97;;
17604;SDS011;8921;50.964;6.800;2023-04-08T00:44:35;27.63;;;13.30;;
17604;SDS011;8921;50.964;6.800;2023-04-08T00:47:04;18.17;;;11.23;;
17604;SDS011;8921;50.964;6.800;2023-04-08T00:49:32;27.17;;;12.50;;
17604;SDS011;8921;50.964;6.800;2023-04-08T00:52:00;21.33;;;13.60;;
17604;SDS011;8921;50.964;6.800;2023-04-08T00:54:29;27.23;;;14.53;;
17604;SDS011;8921;50.964;6.800;2023-04-08T00:56:57;19.27;;;11.43;;
17604;SDS011;8921;50.964;6.800;2023-04-08T00:59:25;20.00;;;12.20;;
17604;SDS011;8921;50.964;6.800;2023-04-08T01:02:01;23.67;;;12.37;;
17604;SDS011;8921;50.964;6.800;2023-04-08T01:07:21;31.90;;;15.23;;
17604;SDS011;8921;50.964;6.800;2023-04-08T01:09:53;34.40;;;12.30;;
17604;SDS011;8921;50.964;6.800;2023-04-08T01:12:20;26.73;;;13.80;;
17604;SDS011;8921;50.964;6.800;2023-04-08T01:14:47;23.20;;;12.40;;
17604;SDS011;8921;50.964;6.800;2023-04-08T01:17:16;23.40;;;14.37;;
17604;SDS011;8921;50.964;6.800;2023-04-08T01:19:44;26.20;;;14.57;;
17604;SDS011;8921;50.964;6.800;2023-04-08T01:24:58;37.37;;;14.80;;
17604;SDS011;8921;50.964;6.800;2023-04-08T01:27:24;30.83;;;17.77;;
17604;SDS011;8921;50.964;6.800;2023-04-08T01:29:52;22.03;;;14.50;;
17604;SDS011;8921;50.964;6.800;2023-04-08T01:32:21;27.67;;;14.63;;
17604;SDS011;8921;50.964;6.800;2023-04-08T01:34:49;27.60;;;16.00;;
17604;SDS011;8921;50.964;6.800;2023-04-08T01:37:17;29.33;;;17.30;;
17604;SDS011;8921;50.964;6.800;2023-04-08T01:39:46;39.20;;;17.83;;
17604;SDS011;8921;50.964;6.800;2023-04-08T01:42:14;31.17;;;16.00;;
17604;SDS011;8921;50.964;6.800;2023-04-08T01:44:42;28.93;;;15.70;;
17604;SDS011;8921;50.964;6.800;2023-04-08T01:47:10;31.20;;;16.87;;
17604;SDS011;8921;50.964;6.800;2023-04-08T01:49:38;36.23;;;17.20;;
17604;SDS011;8921;50.964;6.800;2023-04-08T01:52:07;29.50;;;18.47;;
17604;SDS011;8921;50.964;6.800;2023-04-08T01:54:35;28.93;;;16.97;;
17604;SDS011;8921;50.964;6.800;2023-04-08T01:57:04;34.23;;;16.70;;
17604;SDS011;8921;50.964;6.800;2023-04-08T01:59:33;31.20;;;18.77;;
17604;SDS011;8921;50.964;6.800;2023-04-08T02:02:00;33.33;;;17.13;;
17604;SDS011;8921;50.964;6.800;2023-04-08T02:04:28;31.40;;;18.43;;
17604;SDS011;8921;50.964;6.800;2023-04-08T02:06:56;37.43;;;18.43;;
17604;SDS011;8921;50.964;6.800;2023-04-08T02:09:25;34.30;;;18.53;;
17604;SDS011;8921;50.964;6.800;2023-04-08T02:11:53;36.83;;;20.63;;
17604;SDS011;8921;50.964;6.800;2023-04-08T02:14:21;38.00;;;19.07;;
17604;SDS011;8921;50.964;6.800;2023-04-08T02:16:52;35.83;;;17.43;;
17604;SDS011;8921;50.964;6.800;2023-04-08T02:19:24;34.50;;;18.40;;
17604;SDS011;8921;50.964;6.800;2023-04-08T02:21:56;34.20;;;19.13;;
17604;SDS011;8921;50.964;6.800;2023-04-08T02:24:23;31.90;;;19.60;;
17604;SDS011;8921;50.964;6.800;2023-04-08T02:26:51;33.83;;;18.33;;
17604;SDS011;8921;50.964;6.800;2023-04-08T02:29:19;34.13;;;20.37;;
17604;SDS011;8921;50.964;6.800;2023-04-08T02:31:48;34.80;;;18.97;;
17604;SDS011;8921;50.964;6.800;2023-04-08T02:34:16;40.83;;;21.30;;
17604;SDS011;8921;50.964;6.800;2023-04-08T02:36:44;31.50;;;19.57;;
17604;SDS011;8921;50.964;6.800;2023-04-08T02:39:12;35.27;;;20.27;;
17604;SDS011;8921;50.964;6.800;2023-04-08T02:41:41;36.40;;;20.70;;
17604;SDS011;8921;50.964;6.800;2023-04-08T02:44:09;42.47;;;21.70;;
17604;SDS011;8921;50.964;6.800;2023-04-08T02:46:37;36.47;;;20.03;;
17604;SDS011;8921;50.964;6.800;2023-04-08T02:49:05;40.10;;;22.73;;
17604;SDS011;8921;50.964;6.800;2023-04-08T02:51:34;40.67;;;21.40;;
17604;SDS011;8921;50.964;6.800;2023-04-08T02:54:02;38.83;;;21.40;;
17604;SDS011;8921;50.964;6.800;2023-04-08T02:56:30;33.70;;;20.73;;
17604;SDS011;8921;50.964;6.800;2023-04-08T02:58:59;37.93;;;21.43;;
17604;SDS011;8921;50.964;6.800;2023-04-08T03:01:27;35.00;;;18.80;;
17604;SDS011;8921;50.964;6.800;2023-04-08T03:03:55;37.73;;;20.80;;
17604;SDS011;8921;50.964;6.800;2023-04-08T03:06:23;38.83;;;21.77;;
17604;SDS011;8921;50.964;6.800;2023-04-08T03:08:52;34.90;;;19.97;;
17604;SDS011;8921;50.964;6.800;2023-04-08T03:11:20;37.27;;;20.27;;
17604;SDS011;8921;50.964;6.800;2023-04-08T03:13:48;34.53;;;18.63;;
17604;SDS011;8921;50.964;6.800;2023-04-08T03:16:17;30.57;;;18.27;;
17604;SDS011;8921;50.964;6.800;2023-04-08T03:18:45;32.13;;;19.37;;
17604;SDS011;8921;50.964;6.800;2023-04-08T03:21:13;34.87;;;20.40;;
17604;SDS011;8921;50.964;6.800;2023-04-08T03:23:41;39.83;;;19.37;;
17604;SDS011;8921;50.964;6.800;2023-04-08T03:26:10;42.80;;;21.30;;
17604;SDS011;8921;50.964;6.800;2023-04-08T03:28:38;35.07;;;20.13;;
17604;SDS011;8921;50.964;6.800;2023-04-08T03:31:06;39.80;;;21.63;;
17604;SDS011;8921;50.964;6.800;2023-04-08T03:33:34;40.83;;;19.83;;
17604;SDS011;8921;50.964;6.800;2023-04-08T03:36:03;41.23;;;22.47;;
17604;SDS011;8921;50.964;6.800;2023-04-08T03:38:31;42.30;;;20.97;;
17604;SDS011;8921;50.964;6.800;2023-04-08T03:40:59;36.30;;;22.30;;
17604;SDS011;8921;50.964;6.800;2023-04-08T03:43:28;38.53;;;20.63;;
17604;SDS011;8921;50.964;6.800;2023-04-08T03:45:56;38.93;;;21.83;;
17604;SDS011;8921;50.964;6.800;2023-04-08T03:48:24;38.23;;;20.57;;
17604;SDS011;8921;50.964;6.800;2023-04-08T03:50:53;34.50;;;19.53;;
17604;SDS011;8921;50.964;6.800;2023-04-08T03:53:21;34.83;;;20.60;;
17604;SDS011;8921;50.964;6.800;2023-04-08T03:55:49;34.30;;;22.00;;
17604;SDS011;8921;50.964;6.800;2023-04-08T03:58:17;37.80;;;22.37;;
17604;SDS011;8921;50.964;6.800;2023-04-08T04:00:46;35.57;;;21.73;;
17604;SDS011;8921;50.964;6.800;2023-04-08T04:03:14;38.17;;;22.27;;
17604;SDS011;8921;50.964;6.800;2023-04-08T04:05:42;43.70;;;22.90;;
17604;SDS011;8921;50.964;6.800;2023-04-08T04:08:10;35.83;;;21.40;;
17604;SDS011;8921;50.964;6.800;2023-04-08T04:10:39;41.43;;;22.67;;
17604;SDS011;8921;50.964;6.800;2023-04-08T04:13:07;40.97;;;20.70;;
17604;SDS011;8921;50.964;6.800;2023-04-08T04:15:38;42.17;;;22.87;;
17604;SDS011;8921;50.964;6.800;2023-04-08T04:18:06;42.30;;;22.03;;
17604;SDS011;8921;50.964;6.800;2023-04-08T04:20:34;37.63;;;22.23;;
17604;SDS011;8921;50.964;6.800;2023-04-08T04:23:03;35.30;;;22.17;;
17604;SDS011;8921;50.964;6.800;2023-04-08T04:25:31;39.07;;;21.77;;
17604;SDS011;8921;50.964;6.800;2023-04-08T04:27:59;37.10;;;20.97;;
17604;SDS011;8921;50.964;6.800;2023-04-08T04:30:28;35.73;;;19.80;;
17604;SDS011;8921;50.964;6.800;2023-04-08T04:32:56;37.40;;;20.77;;
17604;SDS011;8921;50.964;6.800;2023-04-08T04:35:24;37.20;;;21.73;;
17604;SDS011;8921;50.964;6.800;2023-04-08T04:37:52;47.83;;;27.47;;
17604;SDS011;8921;50.964;6.800;2023-04-08T04:40:21;40.00;;;20.80;;
17604;SDS011;8921;50.964;6.800;2023-04-08T04:42:49;40.20;;;21.10;;
17604;SDS011;8921;50.964;6.800;2023-04-08T04:45:17;32.73;;;21.43;;
17604;SDS011;8921;50.964;6.800;2023-04-08T04:47:45;38.20;;;22.50;;
17604;SDS011;8921;50.964;6.800;2023-04-08T04:50:14;45.97;;;21.30;;
17604;SDS011;8921;50.964;6.800;2023-04-08T04:52:42;35.97;;;21.90;;
17604;SDS011;8921;50.964;6.800;2023-04-08T04:55:10;41.70;;;24.43;;
17604;SDS011;8921;50.964;6.800;2023-04-08T04:57:39;37.83;;;22.50;;
17604;SDS011;8921;50.964;6.800;2023-04-08T05:00:07;37.63;;;22.30;;
17604;SDS011;8921;50.964;6.800;2023-04-08T05:02:35;37.43;;;22.07;;
17604;SDS011;8921;50.964;6.800;2023-04-08T05:05:04;40.20;;;19.23;;
17604;SDS011;8921;50.964;6.800;2023-04-08T05:07:35;37.53;;;20.27;;
17604;SDS011;8921;50.964;6.800;2023-04-08T05:10:03;32.20;;;18.70;;
17604;SDS011;8921;50.964;6.800;2023-04-08T05:12:32;38.60;;;21.23;;
17604;SDS011;8921;50.964;6.800;2023-04-08T05:15:00;39.40;;;20.23;;
17604;SDS011;8921;50.964;6.800;2023-04-08T05:17:28;37.40;;;20.57;;
17604;SDS011;8921;50.964;6.800;2023-04-08T05:19:56;36.67;;;19.73;;
17604;SDS011;8921;50.964;6.800;2023-04-08T05:22:25;41.20;;;20.30;;
17604;SDS011;8921;50.964;6.800;2023-04-08T05:24:53;32.60;;;19.90;;
17604;SDS011;8921;50.964;6.800;2023-04-08T05:27:21;38.23;;;21.27;;
17604;SDS011;8921;50.964;6.800;2023-04-08T05:29:49;41.47;;;22.80;;
17604;SDS011;8921;50.964;6.800;2023-04-08T05:32:18;41.83;;;21.03;;
17604;SDS011;8921;50.964;6.800;2023-04-08T05:34:46;47.13;;;22.17;;
17604;SDS011;8921;50.964;6.800;2023-04-08T05:37:14;41.73;;;22.30;;
17604;SDS011;8921;50.964;6.800;2023-04-08T05:39:42;35.90;;;21.43;;
17604;SDS011;8921;50.964;6.800;2023-04-08T05:42:11;41.03;;;22.97;;
17604;SDS011;8921;50.964;6.800;2023-04-08T05:44:39;45.13;;;22.60;;
17604;SDS011;8921;50.964;6.800;2023-04-08T05:47:07;43.47;;;24.17;;
17604;SDS011;8921;50.964;6.800;2023-04-08T05:49:35;47.97;;;25.93;;
17604;SDS011;8921;50.964;6.800;2023-04-08T05:52:04;43.77;;;25.30;;
17604;SDS011;8921;50.964;6.800;2023-04-08T05:54:32;49.17;;;25.57;;
17604;SDS011;8921;50.964;6.800;2023-04-08T05:57:00;50.90;;;25.43;;
17604;SDS011;8921;50.964;6.800;2023-04-08T05:59:29;51.77;;;27.77;;
17604;SDS011;8921;50.964;6.800;2023-04-08T06:01:57;50.20;;;28.47;;
17604;SDS011;8921;50.964;6.800;2023-04-08T06:04:25;53.63;;;27.67;;
17604;SDS011;8921;50.964;6.800;2023-04-08T06:06:53;55.90;;;28.70;;
17604;SDS011;8921;50.964;6.800;2023-04-08T06:09:25;53.07;;;27.93;;
17604;SDS011;8921;50.964;6.800;2023-04-08T06:11:53;48.80;;;29.13;;
17604;SDS011;8921;50.964;6.800;2023-04-08T06:14:21;55.57;;;28.30;;
17604;SDS011;8921;50.964;6.800;2023-04-08T06:16:49;49.63;;;26.97;;
17604;SDS011;8921;50.964;6.800;2023-04-08T06:19:18;52.67;;;27.53;;
17604;SDS011;8921;50.964;6.800;2023-04-08T06:21:46;59.07;;;29.50;;
17604;SDS011;8921;50.964;6.800;2023-04-08T06:24:14;50.90;;;28.37;;
17604;SDS011;8921;50.964;6.800;2023-04-08T06:26:42;59.27;;;30.20;;
17604;SDS011;8921;50.964;6.800;2023-04-08T06:29:11;57.30;;;30.40;;
17604;SDS011;8921;50.964;6.800;2023-04-08T06:31:39;64.87;;;31.30;;
17604;SDS011;8921;50.964;6.800;2023-04-08T06:34:07;56.17;;;29.77;;
17604;SDS011;8921;50.964;6.800;2023-04-08T06:36:36;56.93;;;28.90;;
17604;SDS011;8921;50.964;6.800;2023-04-08T06:39:04;50.20;;;28.80;;
17604;SDS011;8921;50.964;6.800;2023-04-08T06:41:32;52.00;;;28.93;;
17604;SDS011;8921;50.964;6.800;2023-04-08T06:44:00;57.67;;;30.17;;
17604;SDS011;8921;50.964;6.800;2023-04-08T06:46:29;57.20;;;29.20;;
17604;SDS011;8921;50.964;6.800;2023-04-08T06:48:57;51.60;;;27.00;;
17604;SDS011;8921;50.964;6.800;2023-04-08T06:51:25;51.33;;;27.67;;
17604;SDS011;8921;50.964;6.800;2023-04-08T06:53:53;47.23;;;26.93;;
17604;SDS011;8921;50.964;6.800;2023-04-08T06:56:22;54.53;;;28.13;;
17604;SDS011;8921;50.964;6.800;2023-04-08T06:58:50;56.40;;;30.87;;
17604;SDS011;8921;50.964;6.800;2023-04-08T07:01:18;60.97;;;29.07;;
17604;SDS011;8921;50.964;6.800;2023-04-08T07:03:46;55.67;;;30.00;;
17604;SDS011;8921;50.964;6.800;2023-04-08T07:06:15;54.70;;;29.63;;
17604;SDS011;8921;50.964;6.800;2023-04-08T07:08:43;59.90;;;30.10;;
17604;SDS011;8921;50.964;6.800;2023-04-08T07:11:11;54.27;;;31.20;;
17604;SDS011;8921;50.964;6.800;2023-04-08T07:13:40;49.67;;;27.63;;
17604;SDS011;8921;50.964;6.800;2023-04-08T07:16:08;49.90;;;27.40;;
17604;SDS011;8921;50.964;6.800;2023-04-08T07:18:36;49.17;;;29.50;;
17604;SDS011;8921;50.964;6.800;2023-04-08T07:21:04;50.23;;;28.70;;
17604;SDS011;8921;50.964;6.800;2023-04-08T07:23:33;52.03;;;29.50;;
17604;SDS011;8921;50.964;6.800;2023-04-08T07:26:02;48.93;;;27.73;;
17604;SDS011;8921;50.964;6.800;2023-04-08T07:28:30;56.67;;;33.13;;
17604;SDS011;8921;50.964;6.800;2023-04-08T07:31:09;57.93;;;36.77;;
17604;SDS011;8921;50.964;6.800;2023-04-08T07:33:44;61.70;;;38.77;;
17604;SDS011;8921;50.964;6.800;2023-04-08T07:36:12;58.90;;;36.93;;
17604;SDS011;8921;50.964;6.800;2023-04-08T07:38:40;48.90;;;30.03;;
17604;SDS011;8921;50.964;6.800;2023-04-08T07:41:09;48.93;;;29.33;;
17604;SDS011;8921;50.964;6.800;2023-04-08T07:43:37;55.20;;;31.57;;
17604;SDS011;8921;50.964;6.800;2023-04-08T07:46:05;42.47;;;26.47;;
17604;SDS011;8921;50.964;6.800;2023-04-08T07:48:34;43.37;;;26.13;;
17604;SDS011;8921;50.964;6.800;2023-04-08T07:51:02;47.33;;;28.73;;
17604;SDS011;8921;50.964;6.800;2023-04-08T07:53:36;42.43;;;26.23;;
17604;SDS011;8921;50.964;6.800;2023-04-08T07:56:09;40.30;;;25.33;;
17604;SDS011;8921;50.964;6.800;2023-04-08T07:58:32;44.27;;;28.80;;
17604;SDS011;8921;50.964;6.800;2023-04-08T08:01:00;44.70;;;27.57;;
17604;SDS011;8921;50.964;6.800;2023-04-08T08:03:29;40.27;;;25.07;;
17604;SDS011;8921;50.964;6.800;2023-04-08T08:05:57;42.57;;;24.00;;
17604;SDS011;8921;50.964;6.800;2023-04-08T08:08:25;38.70;;;23.67;;
17604;SDS011;8921;50.964;6.800;2023-04-08T08:10:54;42.10;;;24.90;;
17604;SDS011;8921;50.964;6.800;2023-04-08T08:13:22;43.67;;;25.03;;
17604;SDS011;8921;50.964;6.800;2023-04-08T08:15:53;42.97;;;24.57;;
17604;SDS011;8921;50.964;6.800;2023-04-08T08:18:21;38.57;;;23.20;;
17604;SDS011;8921;50.964;6.800;2023-04-08T08:20:50;40.90;;;24.90;;
17604;SDS011;8921;50.964;6.800;2023-04-08T08:23:18;39.20;;;25.40;;
17604;SDS011;8921;50.964;6.800;2023-04-08T08:25:46;45.73;;;24.00;;
17604;SDS011;8921;50.964;6.800;2023-04-08T08:28:14;38.33;;;23.43;;
17604;SDS011;8921;50.964;6.800;2023-04-08T08:30:43;37.30;;;23.53;;
17604;SDS011;8921;50.964;6.800;2023-04-08T08:33:11;36.37;;;22.93;;
17604;SDS011;8921;50.964;6.800;2023-04-08T08:35:39;39.27;;;24.90;;
17604;SDS011;8921;50.964;6.800;2023-04-08T08:38:08;36.90;;;23.83;;
17604;SDS011;8921;50.964;6.800;2023-04-08T08:40:36;38.40;;;24.20;;
17604;SDS011;8921;50.964;6.800;2023-04-08T08:43:04;41.40;;;23.60;;
17604;SDS011;8921;50.964;6.800;2023-04-08T08:45:32;42.27;;;25.43;;
17604;SDS011;8921;50.964;6.800;2023-04-08T08:48:01;39.03;;;24.17;;
17604;SDS011;8921;50.964;6.800;2023-04-08T08:50:29;47.93;;;26.63;;
17604;SDS011;8921;50.964;6.800;2023-04-08T08:52:57;38.40;;;25.33;;
17604;SDS011;8921;50.964;6.800;2023-04-08T08:55:28;42.73;;;23.93;;
17604;SDS011;8921;50.964;6.800;2023-04-08T08:57:54;42.30;;;25.77;;
17604;SDS011;8921;50.964;6.800;2023-04-08T09:00:31;44.57;;;25.47;;
17604;SDS011;8921;50.964;6.800;2023-04-08T09:03:18;46.47;;;25.70;;
17604;SDS011;8921;50.964;6.800;2023-04-08T09:08:35;57.77;;;31.57;;
17604;SDS011;8921;50.964;6.800;2023-04-08T09:11:15;52.90;;;32.90;;
17604;SDS011;8921;50.964;6.800;2023-04-08T09:13:43;57.80;;;32.70;;
17604;SDS011;8921;50.964;6.800;2023-04-08T09:16:12;63.87;;;34.57;;
17604;SDS011;8921;50.964;6.800;2023-04-08T09:18:43;59.20;;;35.83;;
17604;SDS011;8921;50.964;6.800;2023-04-08T09:21:11;55.13;;;31.10;;
17604;SDS011;8921;50.964;6.800;2023-04-08T09:23:40;56.10;;;31.73;;
17604;SDS011;8921;50.964;6.800;2023-04-08T09:26:08;62.90;;;33.93;;
17604;SDS011;8921;50.964;6.800;2023-04-08T09:29:00;53.83;;;28.57;;
17604;SDS011;8921;50.964;6.800;2023-04-08T09:31:34;57.30;;;30.10;;
17604;SDS011;8921;50.964;6.800;2023-04-08T09:34:08;59.60;;;30.80;;
17604;SDS011;8921;50.964;6.800;2023-04-08T09:36:30;66.70;;;35.87;;
17604;SDS011;8921;50.964;6.800;2023-04-08T09:38:58;59.40;;;31.20;;
17604;SDS011;8921;50.964;6.800;2023-04-08T09:41:27;71.17;;;37.60;;
17604;SDS011;8921;50.964;6.800;2023-04-08T09:43:55;59.90;;;33.80;;
17604;SDS011;8921;50.964;6.800;2023-04-08T09:46:28;61.60;;;33.60;;
17604;SDS011;8921;50.964;6.800;2023-04-08T09:49:00;62.40;;;34.20;;
17604;SDS011;8921;50.964;6.800;2023-04-08T09:51:25;54.60;;;30.23;;
17604;SDS011;8921;50.964;6.800;2023-04-08T09:53:55;61.70;;;33.73;;
17604;SDS011;8921;50.964;6.800;2023-04-08T09:56:22;52.60;;;30.40;;
17604;SDS011;8921;50.964;6.800;2023-04-08T09:58:51;53.07;;;31.40;;
17604;SDS011;8921;50.964;6.800;2023-04-08T10:01:21;55.00;;;33.90;;
17604;SDS011;8921;50.964;6.800;2023-04-08T10:03:47;59.60;;;34.40;;
17604;SDS011;8921;50.964;6.800;2023-04-08T10:06:15;49.47;;;32.03;;
17604;SDS011;8921;50.964;6.800;2023-04-08T10:08:43;54.50;;;33.40;;
17604;SDS011;8921;50.964;6.800;2023-04-08T10:11:13;60.03;;;34.80;;
17604;SDS011;8921;50.964;6.800;2023-04-08T10:13:40;50.20;;;31.53;;
17604;SDS011;8921;50.964;6.800;2023-04-08T10:16:17;52.27;;;31.90;;
17604;SDS011;8921;50.964;6.800;2023-04-08T10:18:52;48.70;;;29.13;;
17604;SDS011;8921;50.964;6.800;2023-04-08T10:21:38;51.77;;;29.40;;
17604;SDS011;8921;50.964;6.800;2023-04-08T10:24:09;50.80;;;30.80;;
17604;SDS011;8921;50.964;6.800;2023-04-08T10:31:48;45.67;;;29.67;;
17604;SDS011;8921;50.964;6.800;2023-04-08T10:34:17;46.90;;;27.53;;
17604;SDS011;8921;50.964;6.800;2023-04-08T10:36:45;40.63;;;26.70;;
17604;SDS011;8921;50.964;6.800;2023-04-08T10:39:13;35.93;;;21.90;;
17604;SDS011;8921;50.964;6.800;2023-04-08T10:41:42;34.40;;;23.10;;
17604;SDS011;8921;50.964;6.800;2023-04-08T10:44:18;35.03;;;22.20;;
17604;SDS011;8921;50.964;6.800;2023-04-08T10:46:49;33.80;;;21.27;;
17604;SDS011;8921;50.964;6.800;2023-04-08T10:49:18;37.37;;;23.33;;
17604;SDS011;8921;50.964;6.800;2023-04-08T10:51:46;29.83;;;22.30;;
17604;SDS011;8921;50.964;6.800;2023-04-08T10:54:15;34.00;;;22.03;;
17604;SDS011;8921;50.964;6.800;2023-04-08T10:56:49;32.73;;;22.87;;
17604;SDS011;8921;50.964;6.800;2023-04-08T10:59:19;26.73;;;18.87;;
17604;SDS011;8921;50.964;6.800;2023-04-08T11:01:45;28.10;;;19.63;;
17604;SDS011;8921;50.964;6.800;2023-04-08T11:04:14;26.07;;;19.27;;
17604;SDS011;8921;50.964;6.800;2023-04-08T11:06:42;25.53;;;19.40;;
17604;SDS011;8921;50.964;6.800;2023-04-08T11:09:10;24.97;;;18.60;;
17604;SDS011;8921;50.964;6.800;2023-04-08T11:11:40;23.57;;;18.80;;
17604;SDS011;8921;50.964;6.800;2023-04-08T11:14:06;25.77;;;18.00;;
17604;SDS011;8921;50.964;6.800;2023-04-08T11:16:35;25.27;;;18.03;;
17604;SDS011;8921;50.964;6.800;2023-04-08T11:19:03;24.03;;;17.60;;
17604;SDS011;8921;50.964;6.800;2023-04-08T11:21:32;23.57;;;16.97;;
17604;SDS011;8921;50.964;6.800;2023-04-08T11:23:59;25.80;;;18.90;;
17604;SDS011;8921;50.964;6.800;2023-04-08T11:26:27;26.73;;;19.53;;
17604;SDS011;8921;50.964;6.800;2023-04-08T11:28:56;28.27;;;20.70;;
17604;SDS011;8921;50.964;6.800;2023-04-08T11:31:24;29.23;;;21.63;;
17604;SDS011;8921;50.964;6.800;2023-04-08T11:33:53;29.57;;;20.43;;
17604;SDS011;8921;50.964;6.800;2023-04-08T11:36:21;32.80;;;23.20;;
17604;SDS011;8921;50.964;6.800;2023-04-08T11:38:49;30.07;;;23.00;;
17604;SDS011;8921;50.964;6.800;2023-04-08T11:41:17;32.50;;;22.30;;
17604;SDS011;8921;50.964;6.800;2023-04-08T11:43:52;31.77;;;22.90;;
17604;SDS011;8921;50.964;6.800;2023-04-08T11:46:20;31.07;;;22.77;;
17604;SDS011;8921;50.964;6.800;2023-04-08T11:49:01;35.07;;;24.53;;
17604;SDS011;8921;50.964;6.800;2023-04-08T11:51:25;37.13;;;25.70;;
17604;SDS011;8921;50.964;6.800;2023-04-08T11:53:53;39.50;;;27.47;;
17604;SDS011;8921;50.964;6.800;2023-04-08T11:56:22;43.30;;;28.87;;
17604;SDS011;8921;50.964;6.800;2023-04-08T11:58:50;37.47;;;26.07;;
17604;SDS011;8921;50.964;6.800;2023-04-08T12:01:18;44.00;;;26.40;;
17604;SDS011;8921;50.964;6.800;2023-04-08T12:03:56;41.20;;;26.03;;
17604;SDS011;8921;50.964;6.800;2023-04-08T12:06:23;40.70;;;26.73;;
17604;SDS011;8921;50.964;6.800;2023-04-08T12:08:52;39.07;;;25.63;;
17604;SDS011;8921;50.964;6.800;2023-04-08T12:11:20;44.63;;;28.10;;
17604;SDS011;8921;50.964;6.800;2023-04-08T12:13:48;39.07;;;26.63;;
17604;SDS011;8921;50.964;6.800;2023-04-08T12:16:17;40.57;;;26.60;;
17604;SDS011;8921;50.964;6.800;2023-04-08T12:18:45;38.50;;;26.10;;
17604;SDS011;8921;50.964;6.800;2023-04-08T12:21:13;40.97;;;28.97;;
17604;SDS011;8921;50.964;6.800;2023-04-08T12:23:41;40.87;;;27.30;;
17604;SDS011;8921;50.964;6.800;2023-04-08T12:26:10;40.50;;;27.00;;
17604;SDS011;8921;50.964;6.800;2023-04-08T12:28:38;40.10;;;24.13;;
17604;SDS011;8921;50.964;6.800;2023-04-08T12:31:06;42.67;;;25.93;;
17604;SDS011;8921;50.964;6.800;2023-04-08T12:33:34;50.30;;;30.70;;
17604;SDS011;8921;50.964;6.800;2023-04-08T12:36:03;43.83;;;26.40;;
17604;SDS011;8921;50.964;6.800;2023-04-08T12:38:31;41.03;;;24.57;;
17604;SDS011;8921;50.964;6.800;2023-04-08T12:40:59;40.40;;;24.77;;
17604;SDS011;8921;50.964;6.800;2023-04-08T12:43:28;46.37;;;26.73;;
17604;SDS011;8921;50.964;6.800;2023-04-08T12:45:56;41.83;;;26.80;;
17604;SDS011;8921;50.964;6.800;2023-04-08T12:48:24;45.40;;;26.83;;
17604;SDS011;8921;50.964;6.800;2023-04-08T12:50:52;83.60;;;53.40;;
17604;SDS011;8921;50.964;6.800;2023-04-08T12:53:21;47.80;;;26.97;;
17604;SDS011;8921;50.964;6.800;2023-04-08T12:55:49;44.03;;;25.00;;
17604;SDS011;8921;50.964;6.800;2023-04-08T12:58:17;47.23;;;28.60;;
17604;SDS011;8921;50.964;6.800;2023-04-08T13:00:46;49.77;;;27.77;;
17604;SDS011;8921;50.964;6.800;2023-04-08T13:03:14;49.43;;;28.80;;
17604;SDS011;8921;50.964;6.800;2023-04-08T13:05:42;49.80;;;27.03;;
17604;SDS011;8921;50.964;6.800;2023-04-08T13:08:10;39.60;;;25.33;;
17604;SDS011;8921;50.964;6.800;2023-04-08T13:10:39;45.50;;;29.10;;
17604;SDS011;8921;50.964;6.800;2023-04-08T13:13:07;48.07;;;27.00;;
17604;SDS011;8921;50.964;6.800;2023-04-08T13:15:35;45.23;;;25.63;;
17604;SDS011;8921;50.964;6.800;2023-04-08T13:18:03;47.60;;;28.90;;
17604;SDS011;8921;50.964;6.800;2023-04-08T13:20:32;46.80;;;28.43;;
17604;SDS011;8921;50.964;6.800;2023-04-08T13:23:00;47.87;;;27.60;;
17604;SDS011;8921;50.964;6.800;2023-04-08T13:25:28;53.00;;;32.73;;
17604;SDS011;8921;50.964;6.800;2023-04-08T13:27:57;55.67;;;30.97;;
17604;SDS011;8921;50.964;6.800;2023-04-08T13:30:25;52.10;;;28.37;;
17604;SDS011;8921;50.964;6.800;2023-04-08T13:32:53;48.80;;;28.00;;
17604;SDS011;8921;50.964;6.800;2023-04-08T13:35:21;49.97;;;28.37;;
17604;SDS011;8921;50.964;6.800;2023-04-08T13:37:50;44.37;;;25.60;;
17604;SDS011;8921;50.964;6.800;2023-04-08T13:40:18;46.27;;;25.17;;
17604;SDS011;8921;50.964;6.800;2023-04-08T13:42:46;44.13;;;26.20;;
17604;SDS011;8921;50.964;6.800;2023-04-08T13:45:14;55.67;;;32.40;;
17604;SDS011;8921;50.964;6.800;2023-04-08T13:47:43;48.73;;;28.67;;
17604;SDS011;8921;50.964;6.800;2023-04-08T13:50:11;44.57;;;26.50;;
17604;SDS011;8921;50.964;6.800;2023-04-08T13:52:39;46.00;;;28.00;;
17604;SDS011;8921;50.964;6.800;2023-04-08T13:55:08;37.53;;;22.53;;
17604;SDS011;8921;50.964;6.800;2023-04-08T13:57:36;22.23;;;14.00;;
17604;SDS011;8921;50.964;6.800;2023-04-08T14:00:04;17.67;;;11.30;;
17604;SDS011;8921;50.964;6.800;2023-04-08T14:02:33;15.07;;;9.93;;
17604;SDS011;8921;50.964;6.800;2023-04-08T14:05:01;14.63;;;9.60;;
17604;SDS011;8921;50.964;6.800;2023-04-08T14:07:29;14.80;;;9.17;;
17604;SDS011;8921;50.964;6.800;2023-04-08T14:09:58;16.87;;;7.60;;
17604;SDS011;8921;50.964;6.800;2023-04-08T14:12:26;10.20;;;7.17;;
17604;SDS011;8921;50.964;6.800;2023-04-08T14:14:54;11.87;;;6.03;;
17604;SDS011;8921;50.964;6.800;2023-04-08T14:17:22;11.10;;;6.37;;
17604;SDS011;8921;50.964;6.800;2023-04-08T14:19:51;11.40;;;6.30;;
17604;SDS011;8921;50.964;6.800;2023-04-08T14:22:19;14.23;;;10.50;;
17604;SDS011;8921;50.964;6.800;2023-04-08T14:24:47;9.63;;;5.53;;
17604;SDS011;8921;50.964;6.800;2023-04-08T14:27:16;8.53;;;4.40;;
17604;SDS011;8921;50.964;6.800;2023-04-08T14:29:44;9.57;;;4.67;;
17604;SDS011;8921;50.964;6.800;2023-04-08T14:32:12;9.57;;;4.60;;
17604;SDS011;8921;50.964;6.800;2023-04-08T14:34:40;9.17;;;5.80;;
17604;SDS011;8921;50.964;6.800;2023-04-08T14:37:09;9.67;;;5.90;;
17604;SDS011;8921;50.964;6.800;2023-04-08T14:39:37;13.07;;;7.80;;
17604;SDS011;8921;50.964;6.800;2023-04-08T14:42:05;9.10;;;5.90;;
17604;SDS011;8921;50.964;6.800;2023-04-08T14:44:34;11.23;;;6.80;;
17604;SDS011;8921;50.964;6.800;2023-04-08T14:47:02;14.70;;;7.20;;
17604;SDS011;8921;50.964;6.800;2023-04-08T14:49:30;10.87;;;6.87;;
17604;SDS011;8921;50.964;6.800;2023-04-08T14:51:58;11.77;;;7.80;;
17604;SDS011;8921;50.964;6.800;2023-04-08T14:54:27;11.07;;;7.33;;
17604;SDS011;8921;50.964;6.800;2023-04-08T14:56:55;12.90;;;7.40;;